Terminal Aerodrome Forecast
Issued by NWS

Home | Current Version | Previous Version | Graphics & Text | Print | Product List | Glossary On
Versions: 1 2 3 4 5 6 7 8 9 10 11 12 13 14 15 16 17 18 19 20 21 22 23 24
706
FTUS43 KUNR 240842 AAB
TAFGCC
TAF AMD
KGCC 240842Z 2409/2506 29010KT P6SM -SHRA SCT008 OVC025
      TEMPO 2409/2413 4SM -RA BR BKN010
     FM241500 29022G32KT P6SM -RA BKN025
     FM250100 30018G28KT P6SM OVC050=

USA.gov is the U.S. government's official web portal to all federal, state and local government web resources and services.